createdAt,value
2023-04-05T00:00:30.752Z,-7.26
2023-04-05T00:01:34.280Z,-7.26
2023-04-05T00:02:36.964Z,-7.27
2023-04-05T00:03:42.736Z,-7.29
2023-04-05T00:04:52.385Z,-7.29
2023-04-05T00:05:55.584Z,-7.30
2023-04-05T00:06:58.308Z,-7.30
2023-04-05T00:08:02.005Z,-7.30
2023-04-05T00:09:05.324Z,-7.32
2023-04-05T00:10:11.844Z,-7.34
2023-04-05T00:11:13.719Z,-7.34
2023-04-05T00:12:16.651Z,-7.33
2023-04-05T00:13:19.257Z,-7.34
2023-04-05T00:14:22.029Z,-7.33
2023-04-05T00:15:24.570Z,-7.33
2023-04-05T00:16:28.301Z,-7.32
2023-04-05T00:17:31.522Z,-7.32
2023-04-05T00:18:38.823Z,-7.33
2023-04-05T00:19:40.986Z,-7.34
2023-04-05T00:20:44.206Z,-7.35
2023-04-05T00:21:46.671Z,-7.38
2023-04-05T00:22:50.572Z,-7.42
2023-04-05T00:23:53.897Z,-7.45
2023-04-05T00:24:56.663Z,-7.45
2023-04-05T00:26:01.161Z,-7.44
2023-04-05T00:27:03.933Z,-7.43
2023-04-05T00:28:05.892Z,-7.41
2023-04-05T00:29:10.875Z,-7.39
2023-04-05T00:30:13.280Z,-7.39
2023-04-05T00:31:16.764Z,-7.37
2023-04-05T00:32:19.132Z,-7.39
2023-04-05T00:33:22.060Z,-7.41
2023-04-05T00:34:24.179Z,-7.42
2023-04-05T00:35:28.275Z,-7.43
2023-04-05T00:36:31.157Z,-7.46
2023-04-05T00:37:34.005Z,-7.47
2023-04-05T00:38:36.014Z,-7.48
2023-04-05T00:39:39.232Z,-7.47
2023-04-05T00:40:43.583Z,-7.51
2023-04-05T00:41:48.834Z,-7.52
2023-04-05T00:42:50.921Z,-7.53
2023-04-05T00:43:53.719Z,-7.51
2023-04-05T00:44:56.157Z,-7.51
2023-04-05T00:45:59.188Z,-7.50
2023-04-05T00:47:02.947Z,-7.49
2023-04-05T00:48:06.635Z,-7.49
2023-04-05T00:49:09.269Z,-7.48
2023-04-05T00:50:12.270Z,-7.48
2023-04-05T00:51:15.163Z,-7.47
2023-04-05T00:52:19.463Z,-7.47
2023-04-05T00:53:21.882Z,-7.49
2023-04-05T00:54:25.565Z,-7.48
2023-04-05T00:55:27.845Z,-7.48
2023-04-05T00:56:31.851Z,-7.47
2023-04-05T00:57:39.168Z,-7.48
2023-04-05T00:58:43.036Z,-7.48
2023-04-05T00:59:45.042Z,-7.49
2023-04-05T01:00:59.312Z,-7.49
2023-04-05T01:02:05.111Z,-7.47
2023-04-05T01:03:08.352Z,-7.44
2023-04-05T01:04:14.003Z,-7.41
2023-04-05T01:05:26.029Z,-7.39
2023-04-05T01:06:39.040Z,-7.41
2023-04-05T01:07:46.586Z,-7.41
2023-04-05T01:08:53.846Z,-7.39
2023-04-05T01:09:57.434Z,-7.33
2023-04-05T01:11:05.513Z,-7.25
2023-04-05T01:12:09.745Z,-7.18
2023-04-05T01:13:13.916Z,-7.09
2023-04-05T01:14:16.251Z,-6.99
2023-04-05T01:15:19.087Z,-6.91
2023-04-05T01:16:20.970Z,-6.80
2023-04-05T01:17:28.316Z,-6.72
2023-04-05T01:18:30.952Z,-6.63
2023-04-05T01:19:37.220Z,-6.56
2023-04-05T01:21:00.760Z,-6.46
2023-04-05T01:22:15.813Z,-6.38
2023-04-05T01:23:38.645Z,-6.28
2023-04-05T01:24:52.853Z,-6.20
2023-04-05T01:26:32.973Z,-6.08
2023-04-05T01:27:46.689Z,-6.02
2023-04-05T01:29:37.885Z,-5.93
2023-04-05T01:30:42.608Z,-5.86
2023-04-05T01:31:51.667Z,-5.80
2023-04-05T01:33:04.643Z,-5.72
2023-04-05T01:34:12.509Z,-5.65
2023-04-05T01:35:18.650Z,-5.58
2023-04-05T01:36:27.264Z,-5.53
2023-04-05T01:37:32.839Z,-5.48
2023-04-05T01:38:36.979Z,-5.44
2023-04-05T01:39:40.070Z,-5.39
2023-04-05T01:40:43.625Z,-5.34
2023-04-05T01:41:46.432Z,-5.31
2023-04-05T01:42:50.664Z,-5.27
2023-04-05T01:43:52.578Z,-5.25
2023-04-05T01:44:58.156Z,-5.23
2023-04-05T01:46:00.279Z,-5.23
2023-04-05T01:47:03.209Z,-5.22
2023-04-05T01:48:05.915Z,-5.21
2023-04-05T01:49:09.515Z,-5.18
2023-04-05T01:50:11.328Z,-5.17
2023-04-05T01:51:16.443Z,-5.13
2023-04-05T01:52:20.221Z,-5.12
2023-04-05T01:53:23.136Z,-5.08
2023-04-05T01:54:25.114Z,-5.06
2023-04-05T01:55:27.977Z,-5.01
2023-04-05T01:56:29.828Z,-4.98
2023-04-05T01:57:32.754Z,-4.94
2023-04-05T01:58:34.637Z,-4.93
2023-04-05T01:59:38.139Z,-4.93
2023-04-05T02:00:42.103Z,-4.94
2023-04-05T02:01:45.374Z,-4.93
2023-04-05T02:02:47.336Z,-4.91
2023-04-05T02:03:51.088Z,-4.93
2023-04-05T02:04:53.554Z,-4.90
2023-04-05T02:05:56.475Z,-4.91
2023-04-05T02:07:01.037Z,-4.96
2023-04-05T02:08:03.956Z,-4.99
2023-04-05T02:09:05.819Z,-5.00
2023-04-05T02:10:09.969Z,-5.02
2023-04-05T02:11:13.770Z,-5.01
2023-04-05T02:12:16.703Z,-5.01
2023-04-05T02:13:22.067Z,-5.00
2023-04-05T02:14:25.935Z,-5.00
2023-04-05T02:15:27.794Z,-4.96
2023-04-05T02:16:35.212Z,-4.91
2023-04-05T02:17:40.031Z,-4.90
2023-04-05T02:18:43.617Z,-4.88
2023-04-05T02:19:49.810Z,-4.87
2023-04-05T02:20:52.973Z,-4.87
2023-04-05T02:21:54.954Z,-4.87
2023-04-05T02:23:01.566Z,-4.85
2023-04-05T02:24:04.217Z,-4.84
2023-04-05T02:25:08.679Z,-4.84
2023-04-05T02:26:13.149Z,-4.83
2023-04-05T02:27:16.037Z,-4.84
2023-04-05T02:28:21.032Z,-4.85
2023-04-05T02:29:29.232Z,-4.88
2023-04-05T02:30:31.755Z,-4.90
2023-04-05T02:31:36.262Z,-4.90
2023-04-05T02:32:38.254Z,-4.90
2023-04-05T02:33:44.118Z,-4.87
2023-04-05T02:34:46.323Z,-4.86
2023-04-05T02:35:52.089Z,-4.85
2023-04-05T02:36:53.997Z,-4.82
2023-04-05T02:37:57.013Z,-4.81
2023-04-05T02:39:01.633Z,-4.78
2023-04-05T02:40:08.797Z,-4.76
2023-04-05T02:41:13.329Z,-4.74
2023-04-05T02:42:17.361Z,-4.71
2023-04-05T02:43:19.172Z,-4.68
2023-04-05T02:44:22.267Z,-4.65
2023-04-05T02:45:28.554Z,-4.65
2023-04-05T02:46:36.468Z,-4.63
2023-04-05T02:47:40.736Z,-4.61
2023-04-05T02:48:43.703Z,-4.57
2023-04-05T02:49:49.156Z,-4.52
2023-04-05T02:50:55.030Z,-4.48
2023-04-05T02:51:57.039Z,-4.46
2023-04-05T02:52:59.856Z,-4.42
2023-04-05T02:54:03.421Z,-4.37
2023-04-05T02:55:14.085Z,-4.33
2023-04-05T02:56:15.943Z,-4.28
2023-04-05T02:57:21.330Z,-4.25
2023-04-05T02:58:32.575Z,-4.22
2023-04-05T02:59:38.264Z,-4.19
2023-04-05T03:00:41.093Z,-4.18
2023-04-05T03:01:48.201Z,-4.16
2023-04-05T03:02:59.328Z,-4.18
2023-04-05T03:04:02.799Z,-4.19
2023-04-05T03:05:07.805Z,-4.22
2023-04-05T03:06:11.828Z,-4.22
2023-04-05T03:07:18.633Z,-4.22
2023-04-05T03:08:24.037Z,-4.23
2023-04-05T03:09:35.175Z,-4.23
2023-04-05T03:10:45.064Z,-4.23
2023-04-05T03:11:52.362Z,-4.23
2023-04-05T03:12:55.165Z,-4.21
2023-04-05T03:14:00.264Z,-4.20
2023-04-05T03:15:29.437Z,-4.18
2023-04-05T03:16:32.785Z,-4.17
2023-04-05T03:17:44.152Z,-4.17
2023-04-05T03:18:47.212Z,-4.17
2023-04-05T03:19:50.079Z,-4.15
2023-04-05T03:20:57.135Z,-4.15
2023-04-05T03:22:00.873Z,-4.13
2023-04-05T03:23:08.772Z,-4.12
2023-04-05T03:24:12.891Z,-4.13
2023-04-05T03:25:17.466Z,-4.12
2023-04-05T03:26:24.511Z,-4.12
2023-04-05T03:27:30.880Z,-4.13
2023-04-05T03:28:45.205Z,-4.16
2023-04-05T03:29:47.666Z,-4.18
2023-04-05T03:30:53.610Z,-4.20
2023-04-05T03:31:58.606Z,-4.22
2023-04-05T03:33:03.456Z,-4.25
2023-04-05T03:34:13.123Z,-4.30
2023-04-05T03:35:21.153Z,-4.36
2023-04-05T03:36:24.600Z,-4.41
2023-04-05T03:37:28.422Z,-4.50
2023-04-05T03:38:39.769Z,-4.55
2023-04-05T03:39:50.926Z,-4.62
2023-04-05T03:40:55.583Z,-4.65
2023-04-05T03:41:57.593Z,-4.71
2023-04-05T03:43:00.420Z,-4.75
2023-04-05T03:44:02.793Z,-4.82
2023-04-05T03:45:07.058Z,-4.86
2023-04-05T03:46:09.069Z,-4.91
2023-04-05T03:47:13.232Z,-4.97
2023-04-05T03:48:20.212Z,-5.02
2023-04-05T03:49:25.046Z,-5.07
2023-04-05T03:50:27.831Z,-5.11
2023-04-05T03:51:31.208Z,-5.16
2023-04-05T03:52:33.131Z,-5.23
2023-04-05T03:53:41.275Z,-5.29
2023-04-05T03:54:43.575Z,-5.33
2023-04-05T03:55:49.486Z,-5.35
2023-04-05T03:56:55.118Z,-5.36
2023-04-05T03:57:59.338Z,-5.34
2023-04-05T03:59:09.358Z,-5.31
2023-04-05T04:00:14.416Z,-5.27
2023-04-05T04:01:20.029Z,-5.24
2023-04-05T04:02:22.210Z,-5.23
2023-04-05T04:03:28.824Z,-5.24
2023-04-05T04:04:30.933Z,-5.23
2023-04-05T04:05:41.331Z,-5.18
2023-04-05T04:06:44.407Z,-5.13
2023-04-05T04:07:48.521Z,-5.11
2023-04-05T04:08:50.659Z,-5.08
2023-04-05T04:09:55.406Z,-5.03
2023-04-05T04:10:58.085Z,-5.00
2023-04-05T04:12:04.308Z,-4.96
2023-04-05T04:13:06.931Z,-4.94
2023-04-05T04:14:10.370Z,-4.92
2023-04-05T04:15:31.778Z,-4.93
2023-04-05T04:17:02.697Z,-4.93
2023-04-05T04:18:28.173Z,-4.94
2023-04-05T04:19:50.298Z,-4.99
2023-04-05T04:21:33.597Z,-5.05
2023-04-05T04:22:49.038Z,-5.07
2023-04-05T04:24:06.407Z,-5.09
2023-04-05T04:25:30.875Z,-5.11
2023-04-05T04:26:50.332Z,-5.10
2023-04-05T04:28:07.365Z,-5.10
2023-04-05T04:29:31.284Z,-5.09
2023-04-05T04:30:57.654Z,-5.05
2023-04-05T04:32:10.957Z,-5.01
2023-04-05T04:33:35.659Z,-4.94
2023-04-05T04:34:58.699Z,-4.88
2023-04-05T04:36:37.003Z,-4.83
2023-04-05T04:37:57.866Z,-4.79
2023-04-05T04:39:32.225Z,-4.74
2023-04-05T04:40:53.742Z,-4.68
2023-04-05T04:42:19.856Z,-4.61
2023-04-05T04:43:43.868Z,-4.55
2023-04-05T04:44:50.033Z,-4.51
2023-04-05T04:46:01.589Z,-4.44
2023-04-05T04:47:14.418Z,-4.39
2023-04-05T04:48:47.384Z,-4.29
2023-04-05T04:50:07.838Z,-4.21
2023-04-05T04:51:13.393Z,-4.15
2023-04-05T04:52:15.409Z,-4.07
2023-04-05T04:53:18.735Z,-3.99
2023-04-05T04:54:22.773Z,-3.91
2023-04-05T04:55:26.180Z,-3.82
2023-04-05T04:56:28.026Z,-3.76
2023-04-05T04:57:32.506Z,-3.68
2023-04-05T04:58:34.452Z,-3.61
2023-04-05T04:59:42.721Z,-3.54
2023-04-05T05:00:45.139Z,-3.49
2023-04-05T05:01:48.254Z,-3.43
2023-04-05T05:02:50.873Z,-3.36
2023-04-05T05:03:56.111Z,-3.30
2023-04-05T05:05:02.872Z,-3.27
2023-04-05T05:06:06.309Z,-3.24
2023-04-05T05:07:11.173Z,-3.22
2023-04-05T05:08:14.012Z,-3.20
2023-04-05T05:09:17.140Z,-3.12
2023-04-05T05:10:25.620Z,-3.05
2023-04-05T05:11:32.118Z,-2.97
2023-04-05T05:12:35.164Z,-2.87
2023-04-05T05:13:39.619Z,-2.77
2023-04-05T05:14:42.464Z,-2.67
2023-04-05T05:15:46.672Z,-2.55
2023-04-05T05:16:54.691Z,-2.44
2023-04-05T05:17:58.304Z,-2.30
2023-04-05T05:19:01.503Z,-2.18
2023-04-05T05:20:14.136Z,-2.05
2023-04-05T05:21:21.144Z,-1.90
2023-04-05T05:22:34.240Z,-1.74
2023-04-05T05:23:36.247Z,-1.57
2023-04-05T05:24:39.940Z,-1.46
2023-04-05T05:25:42.739Z,-1.41
2023-04-05T05:26:45.983Z,-1.37
2023-04-05T05:27:48.853Z,-1.29
2023-04-05T05:28:51.673Z,-1.20
2023-04-05T05:29:54.331Z,-1.14
2023-04-05T05:30:57.274Z,-0.96
2023-04-05T05:31:59.344Z,-0.71
2023-04-05T05:33:02.930Z,-0.58
2023-04-05T05:34:06.440Z,-0.50
2023-04-05T05:35:10.061Z,-0.47
2023-04-05T05:36:12.303Z,-0.49
2023-04-05T05:37:17.714Z,-0.56
2023-04-05T05:38:19.521Z,-0.60
2023-04-05T05:39:23.538Z,-0.61
2023-04-05T05:40:26.837Z,-0.60
2023-04-05T05:41:29.681Z,-0.58
2023-04-05T05:42:32.720Z,-0.55
2023-04-05T05:43:35.580Z,-0.51
2023-04-05T05:44:37.569Z,-0.46
2023-04-05T05:45:46.303Z,-0.46
2023-04-05T05:46:49.121Z,-0.49
2023-04-05T05:47:51.147Z,-0.50
2023-04-05T05:48:55.727Z,-0.51
2023-04-05T05:49:59.941Z,-0.52
2023-04-05T05:51:01.973Z,-0.52
2023-04-05T05:52:05.534Z,-0.47
2023-04-05T05:53:07.695Z,-0.47
2023-04-05T05:54:10.597Z,-0.45
2023-04-05T05:55:12.820Z,-0.40
2023-04-05T05:56:15.636Z,-0.36
2023-04-05T05:57:17.623Z,-0.27
2023-04-05T05:58:21.715Z,-0.15
2023-04-05T05:59:23.567Z,-0.11
2023-04-05T06:00:27.265Z,-0.08
2023-04-05T06:01:34.544Z,-0.04
2023-04-05T06:02:37.610Z,-0.05
2023-04-05T06:03:39.629Z,-0.05
2023-04-05T06:04:42.900Z,-0.04
2023-04-05T06:05:52.211Z,-0.06
2023-04-05T06:06:55.043Z,-0.07
2023-04-05T06:07:59.478Z,-0.06
2023-04-05T06:09:01.585Z,-0.03
2023-04-05T06:10:05.425Z,-0.01
2023-04-05T06:11:08.385Z,0.01
2023-04-05T06:12:11.177Z,0.02
2023-04-05T06:13:14.057Z,0.04
2023-04-05T06:14:17.693Z,0.05
2023-04-05T06:15:20.566Z,0.05
2023-04-05T06:16:22.895Z,0.04
2023-04-05T06:17:26.268Z,0.05
2023-04-05T06:18:29.139Z,0.06
2023-04-05T06:19:31.440Z,0.06
2023-04-05T06:20:35.712Z,0.06
2023-04-05T06:21:39.624Z,0.04
2023-04-05T06:22:42.654Z,0.01
2023-04-05T06:23:44.760Z,0.01
2023-04-05T06:24:47.706Z,0.02
2023-04-05T06:25:49.696Z,0.05
2023-04-05T06:26:53.063Z,0.10
2023-04-05T06:27:55.030Z,0.16
2023-04-05T06:28:58.085Z,0.24
2023-04-05T06:30:01.896Z,0.28
2023-04-05T06:31:04.904Z,0.37
2023-04-05T06:32:07.865Z,0.45
2023-04-05T06:33:10.952Z,0.49
2023-04-05T06:34:13.850Z,0.52
2023-04-05T06:35:17.658Z,0.56
2023-04-05T06:36:21.411Z,0.63
2023-04-05T06:37:24.594Z,0.67
2023-04-05T06:38:27.407Z,0.71
2023-04-05T06:39:30.130Z,0.77
2023-04-05T06:40:33.053Z,0.82
2023-04-05T06:41:35.854Z,0.88
2023-04-05T06:42:37.736Z,0.94
2023-04-05T06:43:42.430Z,0.99
2023-04-05T06:44:45.894Z,1.07
2023-04-05T06:45:51.562Z,1.09
2023-04-05T06:46:53.507Z,1.05
2023-04-05T06:47:56.396Z,1.04
2023-04-05T06:48:58.555Z,1.09
2023-04-05T06:50:02.206Z,1.13
2023-04-05T06:51:04.433Z,1.12
2023-04-05T06:52:07.358Z,1.14
2023-04-05T06:53:10.891Z,1.16
2023-04-05T06:54:13.682Z,1.17
2023-04-05T06:55:16.155Z,1.23
2023-04-05T06:56:19.049Z,1.33
2023-04-05T06:57:21.105Z,1.38
2023-04-05T06:58:26.307Z,1.43
2023-04-05T06:59:28.756Z,1.52
2023-04-05T07:00:31.829Z,1.58
2023-04-05T07:01:34.090Z,1.63
2023-04-05T07:02:36.943Z,1.69
2023-04-05T07:03:39.845Z,1.71
2023-04-05T07:04:43.664Z,1.70
2023-04-05T07:05:51.415Z,1.67
2023-04-05T07:06:55.691Z,1.60
2023-04-05T07:07:57.739Z,1.54
2023-04-05T07:09:04.212Z,1.52
2023-04-05T07:10:07.208Z,1.46
2023-04-05T07:11:11.324Z,1.41
2023-04-05T07:12:13.240Z,1.35
2023-04-05T07:13:17.103Z,1.32
2023-04-05T07:14:19.413Z,1.35
2023-04-05T07:15:22.575Z,1.42
2023-04-05T07:16:24.862Z,1.48
2023-04-05T07:17:28.074Z,1.68
2023-04-05T07:18:30.144Z,1.97
2023-04-05T07:19:33.293Z,2.29
2023-04-05T07:20:37.807Z,2.62
2023-04-05T07:21:39.590Z,2.94
2023-04-05T07:22:42.612Z,3.12
2023-04-05T07:23:46.488Z,3.26
2023-04-05T07:24:52.376Z,3.31
2023-04-05T07:25:55.431Z,3.39
2023-04-05T07:26:58.304Z,3.55
2023-04-05T07:28:01.863Z,3.73
2023-04-05T07:29:04.878Z,3.95
2023-04-05T07:30:08.142Z,4.26
2023-04-05T07:31:11.054Z,4.57
2023-04-05T07:32:12.951Z,4.89
2023-04-05T07:33:21.669Z,5.19
2023-04-05T07:34:24.518Z,5.46
2023-04-05T07:35:26.335Z,5.66
2023-04-05T07:36:31.163Z,5.77
2023-04-05T07:37:32.973Z,5.82
2023-04-05T07:38:36.890Z,5.94
2023-04-05T07:39:42.483Z,6.14
2023-04-05T07:40:46.563Z,6.29
2023-04-05T07:41:48.376Z,6.35
2023-04-05T07:42:51.585Z,6.49
2023-04-05T07:43:53.459Z,6.70
2023-04-05T07:44:56.209Z,6.89
2023-04-05T07:46:02.809Z,7.01
2023-04-05T07:47:04.730Z,7.18
2023-04-05T07:48:07.635Z,7.35
2023-04-05T07:49:10.706Z,7.53
2023-04-05T07:50:15.197Z,7.68
2023-04-05T07:51:17.390Z,7.82
2023-04-05T07:52:20.598Z,7.84
2023-04-05T07:53:22.409Z,7.73
2023-04-05T07:54:25.306Z,7.57
2023-04-05T07:55:29.197Z,7.32
2023-04-05T07:56:33.418Z,6.95
2023-04-05T07:57:35.699Z,6.68
2023-04-05T07:58:41.100Z,6.45
2023-04-05T07:59:43.191Z,6.27
2023-04-05T08:00:46.326Z,6.30
2023-04-05T08:01:50.429Z,6.41
2023-04-05T08:02:53.250Z,6.49
2023-04-05T08:03:57.402Z,6.60
2023-04-05T08:05:00.571Z,6.60
2023-04-05T08:06:11.038Z,6.70
2023-04-05T08:07:14.030Z,6.73
2023-04-05T08:08:17.793Z,6.81
2023-04-05T08:09:20.580Z,6.91
2023-04-05T08:10:23.423Z,6.97
2023-04-05T08:11:26.971Z,6.91
2023-04-05T08:12:31.876Z,7.05
2023-04-05T08:13:33.961Z,7.12
2023-04-05T08:14:37.194Z,7.03
2023-04-05T08:15:40.953Z,6.81
2023-04-05T08:16:44.417Z,6.44
2023-04-05T08:17:47.558Z,6.14
2023-04-05T08:18:50.516Z,5.88
2023-04-05T08:19:53.255Z,5.68
2023-04-05T08:20:57.148Z,5.50
2023-04-05T08:21:59.992Z,5.30
2023-04-05T08:23:02.835Z,5.10
2023-04-05T08:24:06.537Z,4.89
2023-04-05T08:25:10.511Z,4.72
2023-04-05T08:26:12.479Z,4.59
2023-04-05T08:27:15.786Z,4.44
2023-04-05T08:28:19.231Z,4.29
2023-04-05T08:29:22.102Z,4.19
2023-04-05T08:30:24.959Z,4.18
2023-04-05T08:31:28.250Z,4.29
2023-04-05T08:32:30.258Z,4.59
2023-04-05T08:33:34.373Z,4.93
2023-04-05T08:34:36.416Z,5.19
2023-04-05T08:35:39.828Z,5.59
2023-04-05T08:36:43.058Z,5.93
2023-04-05T08:37:47.537Z,6.22
2023-04-05T08:38:49.356Z,6.49
2023-04-05T08:39:52.439Z,6.77
2023-04-05T08:40:54.343Z,7.02
2023-04-05T08:42:03.140Z,7.24
2023-04-05T08:43:11.572Z,7.36
2023-04-05T08:44:16.937Z,7.33
2023-04-05T08:45:21.081Z,7.20
2023-04-05T08:46:24.196Z,7.04
2023-04-05T08:47:27.232Z,6.86
2023-04-05T08:48:32.956Z,6.60
2023-04-05T08:49:35.919Z,6.30
2023-04-05T08:50:37.916Z,6.09
2023-04-05T08:51:40.844Z,5.92
2023-04-05T08:52:43.808Z,5.77
2023-04-05T08:53:46.832Z,5.64
2023-04-05T08:54:50.726Z,5.51
2023-04-05T08:56:22.118Z,5.31
2023-04-05T08:57:27.409Z,5.20
2023-04-05T08:58:39.692Z,5.13
2023-04-05T08:59:44.872Z,4.99
2023-04-05T09:00:47.560Z,4.90
2023-04-05T09:01:52.617Z,4.81
2023-04-05T09:02:57.154Z,4.71
2023-04-05T09:04:07.424Z,4.62
2023-04-05T09:05:10.191Z,4.58
2023-04-05T09:06:14.048Z,4.60
2023-04-05T09:07:43.055Z,4.57
2023-04-05T09:08:45.340Z,4.58
2023-04-05T09:09:51.042Z,4.58
2023-04-05T09:10:57.389Z,4.59
2023-04-05T09:11:59.412Z,4.58
2023-04-05T09:13:03.451Z,4.59
2023-04-05T09:14:06.814Z,4.70
2023-04-05T09:15:11.645Z,4.99
2023-04-05T09:16:14.828Z,5.22
2023-04-05T09:17:19.494Z,5.41
2023-04-05T09:18:26.886Z,5.63
2023-04-05T09:19:29.956Z,6.01
2023-04-05T09:20:34.766Z,6.38
2023-04-05T09:22:04.638Z,6.88
2023-04-05T09:23:12.507Z,7.32
2023-04-05T09:24:15.576Z,7.71
2023-04-05T09:25:35.878Z,7.92
2023-04-05T09:26:45.265Z,7.96
2023-04-05T09:27:56.258Z,8.08
2023-04-05T09:28:59.057Z,8.29
2023-04-05T09:30:03.504Z,8.55
2023-04-05T09:31:08.936Z,8.70
2023-04-05T09:32:12.715Z,8.56
2023-04-05T09:33:19.979Z,8.45
2023-04-05T09:34:22.903Z,8.35
2023-04-05T09:35:27.672Z,8.32
2023-04-05T09:36:30.106Z,8.39
2023-04-05T09:37:33.566Z,8.46
2023-04-05T09:38:45.964Z,8.62
2023-04-05T09:40:04.196Z,8.82
2023-04-05T09:41:09.131Z,8.92
2023-04-05T09:42:14.363Z,9.03
2023-04-05T09:43:36.901Z,9.27
2023-04-05T09:44:53.822Z,9.31
2023-04-05T09:45:58.519Z,9.40
2023-04-05T09:47:16.706Z,9.53
2023-04-05T09:48:20.328Z,9.67
2023-04-05T09:49:33.300Z,9.66
2023-04-05T09:50:36.526Z,9.80
2023-04-05T09:51:42.359Z,10.02
2023-04-05T09:52:48.211Z,10.18
2023-04-05T09:54:00.521Z,10.29
2023-04-05T09:55:06.683Z,10.22
2023-04-05T09:56:09.651Z,10.04
2023-04-05T09:57:12.610Z,9.83
2023-04-05T09:58:21.439Z,9.74
2023-04-05T09:59:23.654Z,9.71
2023-04-05T10:00:26.500Z,9.60
2023-04-05T10:01:28.994Z,9.41
2023-04-05T10:02:38.326Z,9.21
2023-04-05T10:03:46.832Z,9.08
2023-04-05T10:04:49.724Z,8.95
2023-04-05T10:05:55.475Z,8.72
2023-04-05T10:06:58.390Z,8.48
2023-04-05T10:08:02.007Z,8.30
2023-04-05T10:09:09.021Z,8.12
2023-04-05T10:10:12.560Z,7.93
2023-04-05T10:11:19.299Z,7.75
2023-04-05T10:12:26.767Z,7.60
2023-04-05T10:13:28.621Z,7.45
2023-04-05T10:14:31.487Z,7.38
2023-04-05T10:15:33.746Z,7.38
2023-04-05T10:16:39.707Z,7.38
2023-04-05T10:17:49.659Z,7.35
2023-04-05T10:18:52.622Z,7.36
2023-04-05T10:20:11.742Z,7.45
2023-04-05T10:21:17.169Z,7.64
2023-04-05T10:22:24.439Z,7.86
2023-04-05T10:23:29.604Z,8.05
2023-04-05T10:24:36.713Z,8.24
2023-04-05T10:25:52.950Z,8.38
2023-04-05T10:27:01.089Z,8.46
2023-04-05T10:28:05.675Z,8.68
2023-04-05T10:29:13.674Z,8.82
2023-04-05T10:30:17.550Z,8.96
2023-04-05T10:31:37.136Z,9.15
2023-04-05T10:32:53.307Z,9.32
2023-04-05T10:33:59.463Z,9.39
2023-04-05T10:35:08.351Z,9.55
2023-04-05T10:36:18.437Z,9.49
2023-04-05T10:37:33.678Z,9.34
2023-04-05T10:38:45.935Z,9.06
2023-04-05T10:39:51.384Z,8.81
2023-04-05T10:40:56.402Z,8.64
2023-04-05T10:42:01.027Z,8.43
2023-04-05T10:43:09.288Z,8.18
2023-04-05T10:44:25.123Z,7.88
2023-04-05T10:45:29.778Z,7.65
2023-04-05T10:46:33.521Z,7.55
2023-04-05T10:47:42.230Z,7.41
2023-04-05T10:48:50.572Z,7.41
2023-04-05T10:49:54.202Z,7.46
2023-04-05T10:50:57.859Z,7.64
2023-04-05T10:51:59.873Z,7.73
2023-04-05T10:53:04.581Z,7.70
2023-04-05T10:54:08.537Z,7.61
2023-04-05T10:55:11.475Z,7.67
2023-04-05T10:56:14.624Z,7.58
2023-04-05T10:57:19.075Z,7.49
2023-04-05T10:58:21.978Z,7.42
2023-04-05T10:59:25.735Z,7.38
2023-04-05T11:00:28.851Z,7.34
2023-04-05T11:01:31.135Z,7.29
2023-04-05T11:02:34.381Z,7.13
2023-04-05T11:03:48.877Z,6.97
2023-04-05T11:04:57.735Z,6.87
2023-04-05T11:06:25.269Z,6.87
2023-04-05T11:07:44.026Z,7.17
2023-04-05T11:08:47.177Z,7.53
2023-04-05T11:09:56.652Z,7.92
2023-04-05T11:10:58.493Z,8.28
2023-04-05T11:12:01.414Z,8.57
2023-04-05T11:13:04.852Z,8.88
2023-04-05T11:14:19.543Z,9.19
2023-04-05T11:15:32.490Z,9.48
2023-04-05T11:16:41.533Z,9.74
2023-04-05T11:17:43.417Z,9.98
2023-04-05T11:18:48.259Z,10.21
2023-04-05T11:19:52.338Z,10.52
2023-04-05T11:21:08.006Z,10.80
2023-04-05T11:22:10.058Z,11.02
2023-04-05T11:23:13.831Z,11.19
2023-04-05T11:24:16.958Z,11.47
2023-04-05T11:25:23.137Z,11.68
2023-04-05T11:26:32.719Z,11.89
2023-04-05T11:27:37.521Z,11.81
2023-04-05T11:28:41.328Z,11.52
2023-04-05T11:29:50.042Z,11.15
2023-04-05T11:30:56.456Z,10.82
2023-04-05T11:32:00.242Z,10.44
2023-04-05T11:33:09.091Z,10.09
2023-04-05T11:34:12.466Z,9.75
2023-04-05T11:35:17.694Z,9.39
2023-04-05T11:36:31.375Z,9.00
2023-04-05T11:37:56.677Z,8.70
2023-04-05T11:39:28.027Z,8.37
2023-04-05T11:40:31.914Z,8.14
2023-04-05T11:41:35.621Z,8.06
2023-04-05T11:42:38.632Z,8.02
2023-04-05T11:43:42.564Z,8.05
2023-04-05T11:44:47.044Z,8.06
2023-04-05T11:45:49.095Z,8.14
2023-04-05T11:46:52.915Z,8.23
2023-04-05T11:47:56.358Z,8.35
2023-04-05T11:50:28.710Z,9.22
2023-04-05T11:51:32.953Z,9.61
2023-04-05T11:52:35.790Z,9.77
2023-04-05T11:53:38.208Z,9.72
2023-04-05T11:54:46.766Z,9.69
2023-04-05T11:55:51.117Z,9.63
2023-04-05T11:56:53.932Z,9.55
2023-04-05T11:57:56.991Z,9.41
2023-04-05T11:58:58.998Z,9.23
2023-04-05T12:00:01.842Z,8.96
2023-04-05T12:01:14.319Z,8.59
2023-04-05T12:02:17.356Z,8.33
2023-04-05T12:03:19.311Z,8.10
2023-04-05T12:04:22.338Z,7.94
2023-04-05T12:05:25.553Z,7.79
2023-04-05T12:06:28.344Z,7.57
2023-04-05T12:07:37.025Z,7.38
2023-04-05T12:08:40.638Z,7.35
2023-04-05T12:10:07.892Z,7.62
2023-04-05T12:11:12.162Z,8.02
2023-04-05T12:12:17.833Z,8.55
2023-04-05T12:13:27.076Z,9.20
2023-04-05T12:14:29.700Z,9.75
2023-04-05T12:15:32.703Z,10.34
2023-04-05T12:16:35.625Z,10.80
2023-04-05T12:17:44.425Z,11.32
2023-04-05T12:18:54.225Z,11.77
2023-04-05T12:19:56.158Z,12.04
2023-04-05T12:21:05.730Z,11.96
2023-04-05T12:22:09.441Z,11.71
2023-04-05T12:23:12.371Z,11.38
2023-04-05T12:24:15.454Z,11.16
2023-04-05T12:25:19.365Z,11.22
2023-04-05T12:26:22.359Z,11.43
2023-04-05T12:27:25.472Z,11.78
2023-04-05T12:28:50.634Z,12.10
2023-04-05T12:30:05.763Z,12.25
2023-04-05T12:31:12.321Z,12.37
2023-04-05T12:32:14.275Z,12.47
2023-04-05T12:33:18.715Z,12.58
2023-04-05T12:34:25.904Z,12.79
2023-04-05T12:35:32.998Z,13.11
2023-04-05T12:36:39.170Z,13.55
2023-04-05T12:37:42.189Z,13.81
2023-04-05T12:38:45.564Z,13.82
2023-04-05T12:39:47.747Z,13.95
2023-04-05T12:40:53.600Z,14.20
2023-04-05T12:41:59.233Z,14.52
2023-04-05T12:43:03.037Z,14.61
2023-04-05T12:44:07.658Z,14.62
2023-04-05T12:45:13.301Z,14.52
2023-04-05T12:46:18.345Z,14.15
2023-04-05T12:47:21.646Z,13.66
2023-04-05T12:48:26.048Z,13.17
2023-04-05T12:49:28.190Z,12.71
2023-04-05T12:50:32.690Z,12.22
2023-04-05T12:51:37.601Z,11.67
2023-04-05T12:52:39.385Z,11.12
2023-04-05T12:53:46.385Z,10.65
2023-04-05T12:54:54.509Z,10.28
2023-04-05T12:55:58.405Z,9.98
2023-04-05T12:57:04.215Z,9.71
2023-04-05T12:58:07.177Z,9.48
2023-04-05T12:59:10.019Z,9.22
2023-04-05T13:00:15.681Z,9.00
2023-04-05T13:01:19.206Z,8.82
2023-04-05T13:02:21.207Z,8.69
2023-04-05T13:03:27.661Z,8.73
2023-04-05T13:04:29.504Z,8.94
2023-04-05T13:05:33.698Z,9.22
2023-04-05T13:06:40.734Z,9.58
2023-04-05T13:07:43.526Z,9.90
2023-04-05T13:08:46.308Z,10.26
2023-04-05T13:09:48.416Z,10.57
2023-04-05T13:10:51.380Z,10.96
2023-04-05T13:11:53.309Z,11.37
2023-04-05T13:12:57.770Z,11.81
2023-04-05T13:13:59.632Z,12.28
2023-04-05T13:15:02.606Z,12.80
2023-04-05T13:16:06.735Z,13.25
2023-04-05T13:17:09.055Z,13.51
2023-04-05T13:18:14.690Z,13.71
2023-04-05T13:19:16.524Z,13.73
2023-04-05T13:20:19.871Z,13.62
2023-04-05T13:21:22.730Z,13.31
2023-04-05T13:22:27.824Z,12.92
2023-04-05T13:23:31.027Z,12.58
2023-04-05T13:24:32.817Z,12.29
2023-04-05T13:25:36.482Z,11.93
2023-04-05T13:26:39.123Z,11.64
2023-04-05T13:27:42.178Z,11.50
2023-04-05T13:28:45.088Z,11.51
2023-04-05T13:29:48.181Z,11.50
2023-04-05T13:30:52.789Z,11.28
2023-04-05T13:31:57.545Z,11.01
2023-04-05T13:33:00.575Z,10.74
2023-04-05T13:34:02.440Z,10.48
2023-04-05T13:35:06.044Z,10.27
2023-04-05T13:36:08.734Z,10.10
2023-04-05T13:37:11.661Z,9.95
2023-04-05T13:38:15.981Z,9.76
2023-04-05T13:39:18.752Z,9.51
2023-04-05T13:40:21.587Z,9.28
2023-04-05T13:41:24.019Z,9.09
2023-04-05T13:42:27.130Z,8.90
2023-04-05T13:43:31.308Z,8.73
2023-04-05T13:44:34.635Z,8.56
2023-04-05T13:45:39.398Z,8.44
2023-04-05T13:46:41.405Z,8.33
2023-04-05T13:47:45.462Z,8.18
2023-04-05T13:48:47.291Z,8.05
2023-04-05T13:49:50.483Z,7.95
2023-04-05T13:50:52.481Z,7.88
2023-04-05T13:51:56.479Z,7.86
2023-04-05T13:52:59.352Z,7.84
2023-04-05T13:54:03.141Z,7.83
2023-04-05T13:55:06.932Z,7.84
2023-04-05T13:56:08.970Z,8.05
2023-04-05T13:57:14.319Z,8.31
2023-04-05T13:58:18.896Z,8.53
2023-04-05T13:59:20.880Z,8.86
2023-04-05T14:00:24.251Z,9.29
2023-04-05T14:01:26.141Z,9.76
2023-04-05T14:02:29.348Z,10.29
2023-04-05T14:03:35.188Z,10.72
2023-04-05T14:04:38.381Z,10.85
2023-04-05T14:05:40.517Z,10.72
2023-04-05T14:06:46.691Z,10.67
2023-04-05T14:07:50.432Z,10.61
2023-04-05T14:08:56.882Z,10.78
2023-04-05T14:10:06.524Z,11.17
2023-04-05T14:11:08.374Z,11.48
2023-04-05T14:12:11.297Z,11.72
2023-04-05T14:13:16.189Z,11.85
2023-04-05T14:14:20.733Z,11.89
2023-04-05T14:15:23.558Z,11.79
2023-04-05T14:16:25.931Z,11.60
2023-04-05T14:17:28.910Z,11.29
2023-04-05T14:18:30.820Z,11.00